Land O' Lakes, WI

1:39 AM CST on February 25, 2018 (GMT -0600)
Kings Land O'Lakes | | Change Station
Active Advisory: Winter Storm Warning

Elev 1703 ft 46.15 °N, 89.21 °W | Updated 4 minutes ago

Snow
Snow
29 °F
Feels Like 22 °F
N
6
Wind Variable Wind from SE

Today
High -- | Low -- °F
--% Chance of Precip.
Yesterday
High -- | Low -- °F
Precip. -- in
Pressure 29.31 in
Visibility 0.8 miles
Clouds Overcast 600 ft
Windchill 22 °F
Dew Point 28 °F
Humidity 96%
Rainfall 0.00 in
Snow Depth Not available.
6:42 AM 5:37 PM
Waxing Gibbous, 72% visible
METAR KLNL 250735Z AUTO 14005KT 3/4SM -SN OVC006 M02/M02 A2931 RMK AO2 T10191025
Pressure 29.31 in
Visibility 0.8 miles
Clouds Overcast 600 ft
Windchill 22 °F
Dew Point 28 °F
Humidity 96%
Rainfall 0.00 in
Snow Depth Not available.
6:42 AM 5:37 PM
Waxing Gibbous, 72% visible
METAR KLNL 250735Z AUTO 14005KT 3/4SM -SN OVC006 M02/M02 A2931 RMK AO2 T10191025

Get Your Daily Forecast Email!

Thanks for signing up!

Be on the lookout for a verification email in your inbox.

You'll start receiving severe weather alerts in your inbox..

×

10-Day Weather Forecast

Almanac

Astronomy

Feb. 25, 2018 Rise Set
Actual Time
Civil Twilight
Nautical Twilight
Astronomical Twilight
Moon
Length of Visible Light
Length of Day
Tomorrow will be .
, % of the Moon is Illuminated

Today's Extremes

State Highs State Lows

Community

WunderPhotos

Category 6

Welcome to Category 6. This is the collective home for Weather Underground's featured writeups by Dr. Jeff Masters (right), Bob Henson (left), Chris Burt, and other regular contributors.

Nearby

Air Quality

  Air Quality AQ Index Pollutant
Not available.

Snow Depth

Station Depth Elevation

Earthquake Activity

City Distance Mag. Time & Date
Minimum magnitude displayed is 2.5.

Coastal Water Temperatures

Place Temperature

Stations

Nearby Weather Stations

Station Location Temp. Windchill Dew Point Humidity Wind Precip. Elev Updated Type
                   

Watches & Warnings

Winter Storm Warning
Issued: 9:24 PM CST Feb. 24, 2018 – National Weather Service

... Winter Storm Warning remains in effect until 6 am CST Sunday...

* what... heavy snow. Total snow accumulations of 4 to 7 inches
are expected.

* Where... Vilas and Oneida counties.

* When... until 6 am CST Sunday.

* Additional details... plan on difficult travel conditions. Be
prepared for significant reductions in visibility at times.

Precautionary/preparedness actions...

A Winter Storm Warning for snow means severe winter weather
conditions will make travel very hazardous or impossible. If you
must travel, keep an extra flashlight, food and water in your
vehicle in case of an emergency. The latest Road conditions for
the state you are calling from can be obtained by calling 5 1 1.